sensor_id;sensor_type;location;lat;lon;timestamp;temperature;humidity
23102;DHT22;11720;51.214;22.574;2023-03-20T00:00:30;4.50;99.90
23102;DHT22;11720;51.214;22.574;2023-03-20T00:02:55;4.50;99.90
23102;DHT22;11720;51.214;22.574;2023-03-20T00:05:23;4.50;99.90
23102;DHT22;11720;51.214;22.574;2023-03-20T00:07:51;4.50;99.90
23102;DHT22;11720;51.214;22.574;2023-03-20T00:10:18;4.50;99.90
23102;DHT22;11720;51.214;22.574;2023-03-20T00:12:45;4.50;99.90
23102;DHT22;11720;51.214;22.574;2023-03-20T00:17:53;4.50;99.90
23102;DHT22;11720;51.214;22.574;2023-03-20T00:20:19;4.50;99.90
23102;DHT22;11720;51.214;22.574;2023-03-20T00:25:16;4.50;99.90
23102;DHT22;11720;51.214;22.574;2023-03-20T00:27:43;4.50;99.90
23102;DHT22;11720;51.214;22.574;2023-03-20T00:30:17;4.50;99.90
23102;DHT22;11720;51.214;22.574;2023-03-20T00:32:44;4.50;99.90
23102;DHT22;11720;51.214;22.574;2023-03-20T00:35:27;4.20;99.90
23102;DHT22;11720;51.214;22.574;2023-03-20T00:37:55;4.50;99.90
23102;DHT22;11720;51.214;22.574;2023-03-20T00:40:21;4.50;99.90
23102;DHT22;11720;51.214;22.574;2023-03-20T00:42:50;4.50;99.90
23102;DHT22;11720;51.214;22.574;2023-03-20T00:45:19;4.60;99.90
23102;DHT22;11720;51.214;22.574;2023-03-20T00:47:48;4.40;99.90
23102;DHT22;11720;51.214;22.574;2023-03-20T00:50:21;4.30;99.90
23102;DHT22;11720;51.214;22.574;2023-03-20T00:52:49;4.40;99.90
23102;DHT22;11720;51.214;22.574;2023-03-20T00:55:15;4.40;99.90
23102;DHT22;11720;51.214;22.574;2023-03-20T00:57:53;4.40;99.90
23102;DHT22;11720;51.214;22.574;2023-03-20T01:02:46;4.40;99.90
23102;DHT22;11720;51.214;22.574;2023-03-20T01:05:12;4.30;99.90
23102;DHT22;11720;51.214;22.574;2023-03-20T01:10:06;4.30;99.90
23102;DHT22;11720;51.214;22.574;2023-03-20T01:12:33;2.00;99.90
23102;DHT22;11720;51.214;22.574;2023-03-20T01:17:27;4.30;99.90
23102;DHT22;11720;51.214;22.574;2023-03-20T01:24:53;4.20;99.90
23102;DHT22;11720;51.214;22.574;2023-03-20T01:27:19;4.20;99.90
23102;DHT22;11720;51.214;22.574;2023-03-20T01:29:45;4.10;99.90
23102;DHT22;11720;51.214;22.574;2023-03-20T01:32:13;4.10;99.90
23102;DHT22;11720;51.214;22.574;2023-03-20T01:34:39;4.30;99.90
23102;DHT22;11720;51.214;22.574;2023-03-20T01:37:11;4.00;99.90
23102;DHT22;11720;51.214;22.574;2023-03-20T01:39:37;4.00;99.90
23102;DHT22;11720;51.214;22.574;2023-03-20T01:42:05;3.90;99.90
23102;DHT22;11720;51.214;22.574;2023-03-20T01:44:34;3.90;99.90
23102;DHT22;11720;51.214;22.574;2023-03-20T01:47:02;3.90;99.90
23102;DHT22;11720;51.214;22.574;2023-03-20T01:51:56;3.80;99.90
23102;DHT22;11720;51.214;22.574;2023-03-20T02:00:09;3.70;99.90
23102;DHT22;11720;51.214;22.574;2023-03-20T02:02:37;3.70;99.90
23102;DHT22;11720;51.214;22.574;2023-03-20T02:05:08;3.70;99.90
23102;DHT22;11720;51.214;22.574;2023-03-20T02:07:36;3.70;99.90
23102;DHT22;11720;51.214;22.574;2023-03-20T02:10:11;3.60;99.90
23102;DHT22;11720;51.214;22.574;2023-03-20T02:15:06;3.60;99.90
23102;DHT22;11720;51.214;22.574;2023-03-20T02:17:32;3.60;99.90
23102;DHT22;11720;51.214;22.574;2023-03-20T02:20:27;3.50;99.90
23102;DHT22;11720;51.214;22.574;2023-03-20T02:23:16;3.50;99.90
23102;DHT22;11720;51.214;22.574;2023-03-20T02:46:19;3.00;99.90
23102;DHT22;11720;51.214;22.574;2023-03-20T02:49:05;3.30;99.90
23102;DHT22;11720;51.214;22.574;2023-03-20T02:51:53;3.30;99.90
23102;DHT22;11720;51.214;22.574;2023-03-20T02:59:42;3.20;99.90
23102;DHT22;11720;51.214;22.574;2023-03-20T03:02:20;3.30;99.90
23102;DHT22;11720;51.214;22.574;2023-03-20T03:04:56;3.20;99.90
23102;DHT22;11720;51.214;22.574;2023-03-20T03:07:25;3.30;99.90
23102;DHT22;11720;51.214;22.574;2023-03-20T03:09:59;3.30;99.90
23102;DHT22;11720;51.214;22.574;2023-03-20T03:12:35;3.30;99.90
23102;DHT22;11720;51.214;22.574;2023-03-20T03:15:13;3.30;99.90
23102;DHT22;11720;51.214;22.574;2023-03-20T03:17:41;3.30;99.90
23102;DHT22;11720;51.214;22.574;2023-03-20T03:20:22;3.30;99.90
23102;DHT22;11720;51.214;22.574;2023-03-20T03:22:49;3.30;99.90
23102;DHT22;11720;51.214;22.574;2023-03-20T03:25:15;3.30;99.90
23102;DHT22;11720;51.214;22.574;2023-03-20T03:27:43;3.20;99.90
23102;DHT22;11720;51.214;22.574;2023-03-20T03:30:33;3.20;99.90
23102;DHT22;11720;51.214;22.574;2023-03-20T03:38:07;3.10;99.90
23102;DHT22;11720;51.214;22.574;2023-03-20T03:40:48;3.20;99.90
23102;DHT22;11720;51.214;22.574;2023-03-20T03:43:38;3.20;99.90
23102;DHT22;11720;51.214;22.574;2023-03-20T03:46:15;3.20;99.90
23102;DHT22;11720;51.214;22.574;2023-03-20T03:48:47;3.20;99.90
23102;DHT22;11720;51.214;22.574;2023-03-20T03:51:17;2.80;99.90
23102;DHT22;11720;51.214;22.574;2023-03-20T03:53:51;3.20;99.90
23102;DHT22;11720;51.214;22.574;2023-03-20T03:56:20;3.30;99.90
23102;DHT22;11720;51.214;22.574;2023-03-20T03:58:51;3.20;99.90
23102;DHT22;11720;51.214;22.574;2023-03-20T04:01:19;3.20;99.90
23102;DHT22;11720;51.214;22.574;2023-03-20T04:03:59;3.40;99.90
23102;DHT22;11720;51.214;22.574;2023-03-20T04:06:26;3.40;99.90
23102;DHT22;11720;51.214;22.574;2023-03-20T04:11:23;3.30;99.90
23102;DHT22;11720;51.214;22.574;2023-03-20T04:13:50;3.30;99.90
23102;DHT22;11720;51.214;22.574;2023-03-20T04:16:17;3.30;99.90
23102;DHT22;11720;51.214;22.574;2023-03-20T04:18:44;3.30;99.90
23102;DHT22;11720;51.214;22.574;2023-03-20T04:21:10;3.20;99.90
23102;DHT22;11720;51.214;22.574;2023-03-20T04:23:36;3.10;99.90
23102;DHT22;11720;51.214;22.574;2023-03-20T04:28:28;3.10;99.90
23102;DHT22;11720;51.214;22.574;2023-03-20T04:30:55;3.00;99.90
23102;DHT22;11720;51.214;22.574;2023-03-20T04:33:21;3.00;99.90
23102;DHT22;11720;51.214;22.574;2023-03-20T04:35:47;3.00;99.90
23102;DHT22;11720;51.214;22.574;2023-03-20T04:45:31;2.30;99.90
23102;DHT22;11720;51.214;22.574;2023-03-20T04:47:57;2.90;99.90
23102;DHT22;11720;51.214;22.574;2023-03-20T04:50:23;2.90;99.90
23102;DHT22;11720;51.214;22.574;2023-03-20T04:52:48;2.90;99.90
23102;DHT22;11720;51.214;22.574;2023-03-20T04:55:14;2.90;99.90
23102;DHT22;11720;51.214;22.574;2023-03-20T04:57:40;2.90;99.90
23102;DHT22;11720;51.214;22.574;2023-03-20T05:00:07;2.90;99.90
23102;DHT22;11720;51.214;22.574;2023-03-20T05:02:32;2.90;99.90
23102;DHT22;11720;51.214;22.574;2023-03-20T05:04:58;2.90;99.90
23102;DHT22;11720;51.214;22.574;2023-03-20T05:07:24;2.90;99.90
23102;DHT22;11720;51.214;22.574;2023-03-20T05:09:49;3.00;99.90
23102;DHT22;11720;51.214;22.574;2023-03-20T05:12:15;3.00;99.90
23102;DHT22;11720;51.214;22.574;2023-03-20T05:17:07;3.10;99.90
23102;DHT22;11720;51.214;22.574;2023-03-20T05:19:33;3.10;99.90
23102;DHT22;11720;51.214;22.574;2023-03-20T05:24:28;3.20;99.90
23102;DHT22;11720;51.214;22.574;2023-03-20T05:26:54;3.20;99.90
23102;DHT22;11720;51.214;22.574;2023-03-20T05:29:20;3.30;99.90
23102;DHT22;11720;51.214;22.574;2023-03-20T05:31:46;3.30;99.90
23102;DHT22;11720;51.214;22.574;2023-03-20T05:34:12;3.40;99.90
23102;DHT22;11720;51.214;22.574;2023-03-20T05:36:37;3.40;99.90
23102;DHT22;11720;51.214;22.574;2023-03-20T05:39:03;3.50;99.90
23102;DHT22;11720;51.214;22.574;2023-03-20T05:41:29;3.50;99.90
23102;DHT22;11720;51.214;22.574;2023-03-20T05:46:21;3.70;99.90
23102;DHT22;11720;51.214;22.574;2023-03-20T05:53:40;3.90;99.90
23102;DHT22;11720;51.214;22.574;2023-03-20T05:56:06;4.00;99.90
23102;DHT22;11720;51.214;22.574;2023-03-20T05:58:32;4.00;99.90
23102;DHT22;11720;51.214;22.574;2023-03-20T06:00:59;4.10;99.90
23102;DHT22;11720;51.214;22.574;2023-03-20T06:03:25;4.20;99.90
23102;DHT22;11720;51.214;22.574;2023-03-20T06:05:50;4.30;99.90
23102;DHT22;11720;51.214;22.574;2023-03-20T06:08:16;4.40;99.90
23102;DHT22;11720;51.214;22.574;2023-03-20T06:10:42;4.50;99.90
23102;DHT22;11720;51.214;22.574;2023-03-20T06:13:07;4.70;99.90
23102;DHT22;11720;51.214;22.574;2023-03-20T06:15:33;4.80;99.90
23102;DHT22;11720;51.214;22.574;2023-03-20T06:17:59;4.80;99.90
23102;DHT22;11720;51.214;22.574;2023-03-20T06:20:25;4.90;99.90
23102;DHT22;11720;51.214;22.574;2023-03-20T06:22:51;5.00;99.90
23102;DHT22;11720;51.214;22.574;2023-03-20T06:25:18;5.10;99.90
23102;DHT22;11720;51.214;22.574;2023-03-20T06:27:47;5.10;99.90
23102;DHT22;11720;51.214;22.574;2023-03-20T06:30:14;5.20;99.90
23102;DHT22;11720;51.214;22.574;2023-03-20T06:32:40;5.20;99.90
23102;DHT22;11720;51.214;22.574;2023-03-20T06:35:06;5.30;99.90
23102;DHT22;11720;51.214;22.574;2023-03-20T06:37:32;5.40;99.90
23102;DHT22;11720;51.214;22.574;2023-03-20T06:42:24;5.70;99.90
23102;DHT22;11720;51.214;22.574;2023-03-20T06:52:17;6.50;99.90
23102;DHT22;11720;51.214;22.574;2023-03-20T06:54:44;6.60;99.90
23102;DHT22;11720;51.214;22.574;2023-03-20T06:57:10;6.60;99.90
23102;DHT22;11720;51.214;22.574;2023-03-20T06:59:36;6.80;99.90
23102;DHT22;11720;51.214;22.574;2023-03-20T07:02:02;7.00;99.90
23102;DHT22;11720;51.214;22.574;2023-03-20T07:04:28;7.10;99.90
23102;DHT22;11720;51.214;22.574;2023-03-20T07:06:54;7.30;99.90
23102;DHT22;11720;51.214;22.574;2023-03-20T07:09:20;7.40;99.90
23102;DHT22;11720;51.214;22.574;2023-03-20T07:14:13;7.70;99.90
23102;DHT22;11720;51.214;22.574;2023-03-20T07:16:40;7.80;99.90
23102;DHT22;11720;51.214;22.574;2023-03-20T07:19:08;7.90;99.90
23102;DHT22;11720;51.214;22.574;2023-03-20T07:24:01;8.20;99.90
23102;DHT22;11720;51.214;22.574;2023-03-20T07:28:53;8.30;99.90
23102;DHT22;11720;51.214;22.574;2023-03-20T07:31:21;8.40;99.90
23102;DHT22;11720;51.214;22.574;2023-03-20T07:33:47;8.50;99.90
23102;DHT22;11720;51.214;22.574;2023-03-20T07:36:13;8.60;99.90
23102;DHT22;11720;51.214;22.574;2023-03-20T07:38:39;8.80;99.90
23102;DHT22;11720;51.214;22.574;2023-03-20T07:41:05;8.90;99.90
23102;DHT22;11720;51.214;22.574;2023-03-20T07:43:31;9.00;99.90
23102;DHT22;11720;51.214;22.574;2023-03-20T07:45:56;9.10;99.90
23102;DHT22;11720;51.214;22.574;2023-03-20T07:48:22;9.20;99.90
23102;DHT22;11720;51.214;22.574;2023-03-20T07:50:48;9.40;99.90
23102;DHT22;11720;51.214;22.574;2023-03-20T07:53:13;9.50;99.90
23102;DHT22;11720;51.214;22.574;2023-03-20T07:58:08;9.80;99.90
23102;DHT22;11720;51.214;22.574;2023-03-20T08:00:33;9.90;99.90
23102;DHT22;11720;51.214;22.574;2023-03-20T08:02:59;10.00;98.60
23102;DHT22;11720;51.214;22.574;2023-03-20T08:05:25;10.10;97.80
23102;DHT22;11720;51.214;22.574;2023-03-20T08:07:50;10.10;97.50
23102;DHT22;11720;51.214;22.574;2023-03-20T08:10:16;10.20;96.00
23102;DHT22;11720;51.214;22.574;2023-03-20T08:12:42;10.30;94.90
23102;DHT22;11720;51.214;22.574;2023-03-20T08:15:08;10.40;94.80
23102;DHT22;11720;51.214;22.574;2023-03-20T08:17:34;10.50;93.70
23102;DHT22;11720;51.214;22.574;2023-03-20T08:23:22;10.70;93.50
23102;DHT22;11720;51.214;22.574;2023-03-20T08:25:49;10.70;93.20
23102;DHT22;11720;51.214;22.574;2023-03-20T08:28:15;10.80;93.70
23102;DHT22;11720;51.214;22.574;2023-03-20T08:30:42;10.80;93.30
23102;DHT22;11720;51.214;22.574;2023-03-20T08:33:07;10.90;92.50
23102;DHT22;11720;51.214;22.574;2023-03-20T08:35:33;10.80;92.30
23102;DHT22;11720;51.214;22.574;2023-03-20T08:38:00;10.80;92.80
23102;DHT22;11720;51.214;22.574;2023-03-20T08:40:26;10.80;92.20
23102;DHT22;11720;51.214;22.574;2023-03-20T08:42:51;10.80;92.20
23102;DHT22;11720;51.214;22.574;2023-03-20T08:45:17;10.70;92.10
23102;DHT22;11720;51.214;22.574;2023-03-20T08:47:46;10.80;92.40
23102;DHT22;11720;51.214;22.574;2023-03-20T08:50:15;10.80;92.60
23102;DHT22;11720;51.214;22.574;2023-03-20T08:52:40;10.80;92.80
23102;DHT22;11720;51.214;22.574;2023-03-20T08:55:12;10.90;93.00
23102;DHT22;11720;51.214;22.574;2023-03-20T08:57:39;11.00;93.30
23102;DHT22;11720;51.214;22.574;2023-03-20T09:00:06;11.20;94.50
23102;DHT22;11720;51.214;22.574;2023-03-20T09:02:32;11.60;94.00
23102;DHT22;11720;51.214;22.574;2023-03-20T09:04:58;11.50;93.60
23102;DHT22;11720;51.214;22.574;2023-03-20T09:09:50;12.00;92.00
23102;DHT22;11720;51.214;22.574;2023-03-20T09:14:46;12.30;91.00
23102;DHT22;11720;51.214;22.574;2023-03-20T09:17:14;12.40;92.30
23102;DHT22;11720;51.214;22.574;2023-03-20T09:22:11;12.60;90.90
23102;DHT22;11720;51.214;22.574;2023-03-20T09:24:37;12.60;91.60
23102;DHT22;11720;51.214;22.574;2023-03-20T09:29:39;12.90;91.40
23102;DHT22;11720;51.214;22.574;2023-03-20T09:34:33;12.90;88.40
23102;DHT22;11720;51.214;22.574;2023-03-20T09:39:27;13.10;86.80
23102;DHT22;11720;51.214;22.574;2023-03-20T09:41:53;13.20;88.50
23102;DHT22;11720;51.214;22.574;2023-03-20T09:44:47;13.40;81.80
23102;DHT22;11720;51.214;22.574;2023-03-20T09:50:37;13.60;80.50
23102;DHT22;11720;51.214;22.574;2023-03-20T09:53:24;13.50;76.40
23102;DHT22;11720;51.214;22.574;2023-03-20T09:55:52;13.50;73.50
23102;DHT22;11720;51.214;22.574;2023-03-20T09:58:29;13.60;72.90
23102;DHT22;11720;51.214;22.574;2023-03-20T10:00:58;13.80;71.30
23102;DHT22;11720;51.214;22.574;2023-03-20T10:03:42;13.80;70.70
23102;DHT22;11720;51.214;22.574;2023-03-20T10:06:13;13.90;72.50
23102;DHT22;11720;51.214;22.574;2023-03-20T10:08:39;14.00;71.10
23102;DHT22;11720;51.214;22.574;2023-03-20T10:11:29;14.00;71.60
23102;DHT22;11720;51.214;22.574;2023-03-20T10:14:08;14.00;70.70
23102;DHT22;11720;51.214;22.574;2023-03-20T10:19:26;14.30;68.80
23102;DHT22;11720;51.214;22.574;2023-03-20T10:24:59;14.40;66.30
23102;DHT22;11720;51.214;22.574;2023-03-20T10:27:38;14.40;68.70
23102;DHT22;11720;51.214;22.574;2023-03-20T10:30:15;14.50;67.60
23102;DHT22;11720;51.214;22.574;2023-03-20T10:33:04;14.70;67.80
23102;DHT22;11720;51.214;22.574;2023-03-20T10:38:38;15.00;68.80
23102;DHT22;11720;51.214;22.574;2023-03-20T10:41:13;15.40;71.90
23102;DHT22;11720;51.214;22.574;2023-03-20T10:43:44;15.10;71.20
23102;DHT22;11720;51.214;22.574;2023-03-20T10:46:22;15.10;72.30
23102;DHT22;11720;51.214;22.574;2023-03-20T10:51:20;15.50;70.00
23102;DHT22;11720;51.214;22.574;2023-03-20T10:53:59;15.60;67.80
23102;DHT22;11720;51.214;22.574;2023-03-20T10:56:36;15.80;65.80
23102;DHT22;11720;51.214;22.574;2023-03-20T10:59:09;15.60;64.70
23102;DHT22;11720;51.214;22.574;2023-03-20T11:01:36;15.60;68.40
23102;DHT22;11720;51.214;22.574;2023-03-20T11:04:22;15.40;74.70
23102;DHT22;11720;51.214;22.574;2023-03-20T11:09:28;15.70;65.10
23102;DHT22;11720;51.214;22.574;2023-03-20T11:12:01;15.30;68.60
23102;DHT22;11720;51.214;22.574;2023-03-20T11:14:36;12.90;63.60
23102;DHT22;11720;51.214;22.574;2023-03-20T11:17:03;15.60;65.30
23102;DHT22;11720;51.214;22.574;2023-03-20T11:19:35;15.60;65.80
23102;DHT22;11720;51.214;22.574;2023-03-20T11:22:25;15.40;66.30
23102;DHT22;11720;51.214;22.574;2023-03-20T11:24:53;15.30;66.00
23102;DHT22;11720;51.214;22.574;2023-03-20T11:27:28;16.00;69.00
23102;DHT22;11720;51.214;22.574;2023-03-20T11:29:59;15.40;66.80
23102;DHT22;11720;51.214;22.574;2023-03-20T11:32:34;15.40;66.00
23102;DHT22;11720;51.214;22.574;2023-03-20T11:37:44;15.80;72.50
23102;DHT22;11720;51.214;22.574;2023-03-20T11:40:28;15.60;66.70
23102;DHT22;11720;51.214;22.574;2023-03-20T11:45:41;15.80;72.20
23102;DHT22;11720;51.214;22.574;2023-03-20T11:48:35;15.80;66.30
23102;DHT22;11720;51.214;22.574;2023-03-20T11:51:09;16.40;66.20
23102;DHT22;11720;51.214;22.574;2023-03-20T11:58:54;16.00;65.50
23102;DHT22;11720;51.214;22.574;2023-03-20T12:01:24;16.20;66.90
23102;DHT22;11720;51.214;22.574;2023-03-20T12:06:25;15.90;65.50
23102;DHT22;11720;51.214;22.574;2023-03-20T12:09:00;15.60;65.40
23102;DHT22;11720;51.214;22.574;2023-03-20T12:19:59;15.90;65.30
23102;DHT22;11720;51.214;22.574;2023-03-20T12:22:32;15.90;63.30
23102;DHT22;11720;51.214;22.574;2023-03-20T12:25:28;16.00;64.70
23102;DHT22;11720;51.214;22.574;2023-03-20T12:31:34;16.60;63.80
23102;DHT22;11720;51.214;22.574;2023-03-20T12:36:43;16.60;59.40
23102;DHT22;11720;51.214;22.574;2023-03-20T12:39:21;16.50;60.00
23102;DHT22;11720;51.214;22.574;2023-03-20T12:51:57;17.20;59.80
23102;DHT22;11720;51.214;22.574;2023-03-20T12:54:55;17.50;58.70
23102;DHT22;11720;51.214;22.574;2023-03-20T12:57:35;17.30;57.40
23102;DHT22;11720;51.214;22.574;2023-03-20T13:00:11;16.90;58.40
23102;DHT22;11720;51.214;22.574;2023-03-20T13:05:51;16.90;57.10
23102;DHT22;11720;51.214;22.574;2023-03-20T13:13:38;17.10;58.90
23102;DHT22;11720;51.214;22.574;2023-03-20T13:19:00;17.00;60.70
23102;DHT22;11720;51.214;22.574;2023-03-20T13:30:30;16.10;63.80
23102;DHT22;11720;51.214;22.574;2023-03-20T13:33:23;16.00;64.10
23102;DHT22;11720;51.214;22.574;2023-03-20T13:35:59;15.60;65.50
23102;DHT22;11720;51.214;22.574;2023-03-20T13:38:30;15.60;65.60
23102;DHT22;11720;51.214;22.574;2023-03-20T13:41:01;15.70;64.80
23102;DHT22;11720;51.214;22.574;2023-03-20T13:43:40;15.70;64.40
23102;DHT22;11720;51.214;22.574;2023-03-20T13:46:17;15.70;65.10
23102;DHT22;11720;51.214;22.574;2023-03-20T13:48:45;15.90;65.10
23102;DHT22;11720;51.214;22.574;2023-03-20T14:05:37;14.50;74.20
23102;DHT22;11720;51.214;22.574;2023-03-20T14:13:36;14.20;76.60
23102;DHT22;11720;51.214;22.574;2023-03-20T14:16:07;14.00;78.50
23102;DHT22;11720;51.214;22.574;2023-03-20T14:18:34;13.80;80.00
23102;DHT22;11720;51.214;22.574;2023-03-20T14:21:11;13.70;80.80
23102;DHT22;11720;51.214;22.574;2023-03-20T14:23:56;13.60;81.10
23102;DHT22;11720;51.214;22.574;2023-03-20T14:26:29;13.50;82.00
23102;DHT22;11720;51.214;22.574;2023-03-20T14:31:34;13.20;85.40
23102;DHT22;11720;51.214;22.574;2023-03-20T14:42:04;13.00;90.50
23102;DHT22;11720;51.214;22.574;2023-03-20T14:50:27;12.70;95.10
23102;DHT22;11720;51.214;22.574;2023-03-20T14:57:52;12.60;98.10
23102;DHT22;11720;51.214;22.574;2023-03-20T15:02:48;12.60;99.90
23102;DHT22;11720;51.214;22.574;2023-03-20T15:05:27;12.40;99.90
23102;DHT22;11720;51.214;22.574;2023-03-20T15:08:03;12.40;99.90
23102;DHT22;11720;51.214;22.574;2023-03-20T15:10:32;12.30;99.90
23102;DHT22;11720;51.214;22.574;2023-03-20T15:12:59;12.10;99.90
23102;DHT22;11720;51.214;22.574;2023-03-20T15:15:29;12.20;99.90
23102;DHT22;11720;51.214;22.574;2023-03-20T15:18:12;12.10;99.90
23102;DHT22;11720;51.214;22.574;2023-03-20T15:24:00;12.00;99.90
23102;DHT22;11720;51.214;22.574;2023-03-20T15:26:27;11.90;99.90
23102;DHT22;11720;51.214;22.574;2023-03-20T15:29:15;11.80;99.90
23102;DHT22;11720;51.214;22.574;2023-03-20T15:31:41;11.70;99.90
23102;DHT22;11720;51.214;22.574;2023-03-20T15:34:25;11.60;99.90
23102;DHT22;11720;51.214;22.574;2023-03-20T15:36:58;11.50;99.90
23102;DHT22;11720;51.214;22.574;2023-03-20T15:39:27;11.40;99.90
23102;DHT22;11720;51.214;22.574;2023-03-20T15:42:08;11.30;99.90
23102;DHT22;11720;51.214;22.574;2023-03-20T15:44:38;11.20;99.90
23102;DHT22;11720;51.214;22.574;2023-03-20T15:49:38;11.10;99.90
23102;DHT22;11720;51.214;22.574;2023-03-20T15:54:48;11.00;99.90
23102;DHT22;11720;51.214;22.574;2023-03-20T15:57:20;11.00;99.90
23102;DHT22;11720;51.214;22.574;2023-03-20T15:59:50;10.90;99.90
23102;DHT22;11720;51.214;22.574;2023-03-20T16:02:16;10.80;99.90
23102;DHT22;11720;51.214;22.574;2023-03-20T16:04:48;10.70;99.90
23102;DHT22;11720;51.214;22.574;2023-03-20T16:07:21;10.70;99.90
23102;DHT22;11720;51.214;22.574;2023-03-20T16:09:48;10.70;99.90
23102;DHT22;11720;51.214;22.574;2023-03-20T16:12:18;10.70;99.90
23102;DHT22;11720;51.214;22.574;2023-03-20T16:14:46;10.60;99.90
23102;DHT22;11720;51.214;22.574;2023-03-20T16:17:13;10.60;99.90
23102;DHT22;11720;51.214;22.574;2023-03-20T16:19:41;10.50;99.90
23102;DHT22;11720;51.214;22.574;2023-03-20T16:22:12;10.50;99.90
23102;DHT22;11720;51.214;22.574;2023-03-20T16:24:44;10.40;99.90
23102;DHT22;11720;51.214;22.574;2023-03-20T16:27:14;10.50;99.90
23102;DHT22;11720;51.214;22.574;2023-03-20T16:29:44;10.50;99.90
23102;DHT22;11720;51.214;22.574;2023-03-20T16:32:35;10.40;99.90
23102;DHT22;11720;51.214;22.574;2023-03-20T16:35:11;10.50;99.90
23102;DHT22;11720;51.214;22.574;2023-03-20T16:37:56;10.50;99.90
23102;DHT22;11720;51.214;22.574;2023-03-20T16:40:33;10.40;99.90
23102;DHT22;11720;51.214;22.574;2023-03-20T16:43:13;10.40;99.90
23102;DHT22;11720;51.214;22.574;2023-03-20T16:45:42;10.30;99.90
23102;DHT22;11720;51.214;22.574;2023-03-20T16:50:44;10.30;99.90
23102;DHT22;11720;51.214;22.574;2023-03-20T16:53:36;10.30;99.90
23102;DHT22;11720;51.214;22.574;2023-03-20T16:56:03;10.20;99.90
23102;DHT22;11720;51.214;22.574;2023-03-20T16:58:31;10.20;99.90
23102;DHT22;11720;51.214;22.574;2023-03-20T17:01:03;10.20;99.90
23102;DHT22;11720;51.214;22.574;2023-03-20T17:03:36;10.20;99.90
23102;DHT22;11720;51.214;22.574;2023-03-20T17:06:24;10.20;99.90
23102;DHT22;11720;51.214;22.574;2023-03-20T17:08:53;10.20;99.90
23102;DHT22;11720;51.214;22.574;2023-03-20T17:11:44;10.20;99.90
23102;DHT22;11720;51.214;22.574;2023-03-20T17:14:10;10.10;99.90
23102;DHT22;11720;51.214;22.574;2023-03-20T17:16:35;10.10;99.90
23102;DHT22;11720;51.214;22.574;2023-03-20T17:19:15;10.10;99.90
23102;DHT22;11720;51.214;22.574;2023-03-20T17:21:42;10.10;99.90
23102;DHT22;11720;51.214;22.574;2023-03-20T17:24:09;10.00;99.90
23102;DHT22;11720;51.214;22.574;2023-03-20T17:26:36;10.00;99.90
23102;DHT22;11720;51.214;22.574;2023-03-20T17:29:02;10.00;99.90
23102;DHT22;11720;51.214;22.574;2023-03-20T17:31:28;10.00;99.90
23102;DHT22;11720;51.214;22.574;2023-03-20T17:33:53;9.90;99.90
23102;DHT22;11720;51.214;22.574;2023-03-20T17:36:29;9.90;99.90
23102;DHT22;11720;51.214;22.574;2023-03-20T17:38:56;9.80;99.90
23102;DHT22;11720;51.214;22.574;2023-03-20T17:41:23;9.90;99.90
23102;DHT22;11720;51.214;22.574;2023-03-20T17:43:49;9.80;99.90
23102;DHT22;11720;51.214;22.574;2023-03-20T17:46:26;9.80;99.90
23102;DHT22;11720;51.214;22.574;2023-03-20T17:49:00;9.80;99.90
23102;DHT22;11720;51.214;22.574;2023-03-20T17:51:26;9.80;99.90
23102;DHT22;11720;51.214;22.574;2023-03-20T17:53:52;9.70;99.90
23102;DHT22;11720;51.214;22.574;2023-03-20T17:56:21;9.70;99.90
23102;DHT22;11720;51.214;22.574;2023-03-20T17:58:47;9.70;99.90
23102;DHT22;11720;51.214;22.574;2023-03-20T18:01:13;9.70;99.90
23102;DHT22;11720;51.214;22.574;2023-03-20T18:03:39;9.70;99.90
23102;DHT22;11720;51.214;22.574;2023-03-20T18:06:05;9.70;99.90
23102;DHT22;11720;51.214;22.574;2023-03-20T18:08:32;9.70;99.90
23102;DHT22;11720;51.214;22.574;2023-03-20T18:10:58;9.60;99.90
23102;DHT22;11720;51.214;22.574;2023-03-20T18:13:25;9.70;99.90
23102;DHT22;11720;51.214;22.574;2023-03-20T18:15:53;9.70;99.90
23102;DHT22;11720;51.214;22.574;2023-03-20T18:18:20;9.60;99.90
23102;DHT22;11720;51.214;22.574;2023-03-20T18:20:46;9.60;99.90
23102;DHT22;11720;51.214;22.574;2023-03-20T18:23:12;9.60;99.90
23102;DHT22;11720;51.214;22.574;2023-03-20T18:25:38;9.60;99.90
23102;DHT22;11720;51.214;22.574;2023-03-20T18:28:06;9.60;99.90
23102;DHT22;11720;51.214;22.574;2023-03-20T18:30:38;9.50;99.90
23102;DHT22;11720;51.214;22.574;2023-03-20T18:33:04;9.60;99.90
23102;DHT22;11720;51.214;22.574;2023-03-20T18:35:30;9.60;99.90
23102;DHT22;11720;51.214;22.574;2023-03-20T18:37:57;9.50;99.90
23102;DHT22;11720;51.214;22.574;2023-03-20T18:40:35;9.50;99.90
23102;DHT22;11720;51.214;22.574;2023-03-20T18:43:01;9.50;99.90
23102;DHT22;11720;51.214;22.574;2023-03-20T18:45:28;9.50;99.90
23102;DHT22;11720;51.214;22.574;2023-03-20T18:47:55;9.50;99.90
23102;DHT22;11720;51.214;22.574;2023-03-20T18:50:25;9.50;99.90
23102;DHT22;11720;51.214;22.574;2023-03-20T18:52:53;9.50;99.90
23102;DHT22;11720;51.214;22.574;2023-03-20T18:55:19;9.50;99.90
23102;DHT22;11720;51.214;22.574;2023-03-20T18:57:45;9.40;99.90
23102;DHT22;11720;51.214;22.574;2023-03-20T19:02:40;9.40;99.90
23102;DHT22;11720;51.214;22.574;2023-03-20T19:05:06;9.40;99.90
23102;DHT22;11720;51.214;22.574;2023-03-20T19:07:32;9.30;99.90
23102;DHT22;11720;51.214;22.574;2023-03-20T19:09:57;9.30;99.90
23102;DHT22;11720;51.214;22.574;2023-03-20T19:12:23;9.30;99.90
23102;DHT22;11720;51.214;22.574;2023-03-20T19:14:48;9.30;99.90
23102;DHT22;11720;51.214;22.574;2023-03-20T19:17:15;9.30;99.90
23102;DHT22;11720;51.214;22.574;2023-03-20T19:19:41;9.30;99.90
23102;DHT22;11720;51.214;22.574;2023-03-20T19:22:07;9.20;99.90
23102;DHT22;11720;51.214;22.574;2023-03-20T19:24:32;9.20;99.90
23102;DHT22;11720;51.214;22.574;2023-03-20T19:26:58;9.20;99.90
23102;DHT22;11720;51.214;22.574;2023-03-20T19:29:24;9.20;99.90
23102;DHT22;11720;51.214;22.574;2023-03-20T19:31:49;9.20;99.90
23102;DHT22;11720;51.214;22.574;2023-03-20T19:34:15;9.20;99.90
23102;DHT22;11720;51.214;22.574;2023-03-20T19:36:43;9.10;99.90
23102;DHT22;11720;51.214;22.574;2023-03-20T19:39:11;9.20;99.90
23102;DHT22;11720;51.214;22.574;2023-03-20T19:41:45;9.10;99.90
23102;DHT22;11720;51.214;22.574;2023-03-20T19:44:15;9.30;99.90
23102;DHT22;11720;51.214;22.574;2023-03-20T19:46:45;8.80;99.90
23102;DHT22;11720;51.214;22.574;2023-03-20T19:49:16;9.30;99.90
23102;DHT22;11720;51.214;22.574;2023-03-20T19:52:04;9.30;99.90
23102;DHT22;11720;51.214;22.574;2023-03-20T19:54:38;9.00;99.90
23102;DHT22;11720;51.214;22.574;2023-03-20T19:59:33;8.90;99.90